Clarkfield, Minnesota
Current Conditions -  °F | °C
As of 4:13 AM on Thursday 29 Jan 2015 (Local Time) from KGDB Reporting Station
Overcast Overcast  
Wind Chill: 16°   Ceiling: 1400
Heat Index: 30°   Visibility: 10mi
Dew Point: 26°   Wind: 26mph
Humidity: 83%   Direction: 320°NW
Pressure: 30.13"   Gusts: 40mph
Location:  44.79°N, 95.81°W
Report Text: KGDB 291013Z AUTO 32023G35KT 10SM OVC014 M01/M03 A3013 RMK AO2 T10101035
Loading
Personal Weather Stations






























Interactive Weather Map New forecast layout! Learn more

10-Day Weather Forecast

Advertisements
Track Severe Weather on mobile